SBPP/PMG METAR and TAF weather

Enter ICAO airport designator
Station Type Date Time Source
SBPP METAR 2022/01/17 21:00 UTC NOAA

SBPP 172100Z 32014KT CAVOK 35/14 Q1010


Station Type Date Time Source
SBPP Decoded METAR 2022/01/17 21:00 UTC NOAA

Ponta Pora Intl , Brazil (SBPP) 22-33S 055-42W
Jan 17, 2022 - 04:00 PM EST / 2022.01.17 2100 UTC
Wind: from the NW (320 degrees) at 16 MPH (14 KT):0
Visibility: greater than 7 mile(s):0
Temperature: 95 F (35 C)
Dew Point: 57 F (14 C)
Relative Humidity: 28%
Pressure (altimeter): 29.83 in. Hg (1010 hPa)
ob: SBPP 172100Z 32014KT CAVOK 35/14 Q1010
cycle: 21

Station Type Date Time Source
SBPP TAF 2022/01/18 06:03 UTC NOAA

TAF SBPP 180400Z 1806/1906 36010KT CAVOK TN25/1810Z TX37/1819Z
BECMG 1809/1811 34018KT
TEMPO 1814/1816 29018KT
BECMG 1816/1818 FEW025 FEW030TCU
BECMG 1819/1821 CAVOK
BECMG 1823/1901 01015KT
RMK PGO

Example: see airport list